createdAt,value
2023-04-14T00:00:02.649Z,6.80
2023-04-14T00:01:03.319Z,6.80
2023-04-14T00:02:03.383Z,6.80
2023-04-14T00:03:03.603Z,6.80
2023-04-14T00:04:03.423Z,6.70
2023-04-14T00:05:03.398Z,6.70
2023-04-14T00:06:03.388Z,6.70
2023-04-14T00:07:03.467Z,6.70
2023-04-14T00:08:03.494Z,6.70
2023-04-14T00:09:03.585Z,6.70
2023-04-14T00:10:03.909Z,6.60
2023-04-14T00:11:02.823Z,6.70
2023-04-14T00:12:03.189Z,6.70
2023-04-14T00:13:03.304Z,6.70
2023-04-14T00:14:03.350Z,6.70
2023-04-14T00:15:03.550Z,6.70
2023-04-14T00:16:03.597Z,6.70
2023-04-14T00:17:03.554Z,6.70
2023-04-14T00:18:02.627Z,6.70
2023-04-14T00:19:02.968Z,6.70
2023-04-14T00:20:02.786Z,6.70
2023-04-14T00:21:02.734Z,6.70
2023-04-14T00:22:02.888Z,6.70
2023-04-14T00:23:02.778Z,6.70
2023-04-14T00:24:02.787Z,6.70
2023-04-14T00:25:02.744Z,6.70
2023-04-14T00:26:02.868Z,6.70
2023-04-14T00:27:02.779Z,6.60
2023-04-14T00:28:02.902Z,6.60
2023-04-14T00:29:03.175Z,6.60
2023-04-14T00:30:02.994Z,6.60
2023-04-14T00:31:03.015Z,6.60
2023-04-14T00:32:03.017Z,6.60
2023-04-14T00:33:02.975Z,6.60
2023-04-14T00:34:02.991Z,6.60
2023-04-14T00:35:03.076Z,6.60
2023-04-14T00:36:03.088Z,6.60
2023-04-14T00:37:03.040Z,6.60
2023-04-14T00:38:03.489Z,6.60
2023-04-14T00:39:02.816Z,6.60
2023-04-14T00:40:02.758Z,6.60
2023-04-14T00:41:02.745Z,6.60
2023-04-14T00:42:02.864Z,6.60
2023-04-14T00:43:02.784Z,6.60
2023-04-14T00:44:02.849Z,6.60
2023-04-14T00:45:02.829Z,6.60
2023-04-14T00:46:02.760Z,6.60
2023-04-14T00:47:02.900Z,6.60
2023-04-14T00:48:02.973Z,6.60
2023-04-14T00:49:03.220Z,6.60
2023-04-14T00:50:03.060Z,6.60
2023-04-14T00:51:03.013Z,6.60
2023-04-14T00:52:02.948Z,6.60
2023-04-14T00:53:03.030Z,6.60
2023-04-14T00:54:03.079Z,6.60
2023-04-14T00:55:03.099Z,6.60
2023-04-14T00:56:03.278Z,6.60
2023-04-14T00:57:03.252Z,6.60
2023-04-14T00:58:03.194Z,6.60
2023-04-14T00:59:03.209Z,6.60
2023-04-14T01:00:03.239Z,6.60
2023-04-14T01:01:03.259Z,6.60
2023-04-14T01:02:03.362Z,6.60
2023-04-14T01:03:03.427Z,6.60
2023-04-14T01:04:03.346Z,6.60
2023-04-14T01:05:03.398Z,6.60
2023-04-14T01:06:03.260Z,6.60
2023-04-14T01:07:03.301Z,6.50
2023-04-14T01:08:03.305Z,6.60
2023-04-14T01:09:03.258Z,6.50
2023-04-14T01:10:03.331Z,6.50
2023-04-14T01:11:03.380Z,6.50
2023-04-14T01:12:03.458Z,6.50
2023-04-14T01:13:03.368Z,6.50
2023-04-14T01:14:03.537Z,6.50
2023-04-14T01:15:03.469Z,6.50
2023-04-14T01:16:03.607Z,6.50
2023-04-14T01:17:03.626Z,6.50
2023-04-14T01:18:03.672Z,6.50
2023-04-14T01:19:02.843Z,6.50
2023-04-14T01:20:02.743Z,6.50
2023-04-14T01:21:03.520Z,6.40
2023-04-14T01:22:03.561Z,6.40
2023-04-14T01:23:03.645Z,6.40
2023-04-14T01:24:02.592Z,6.40
2023-04-14T01:25:02.667Z,6.40
2023-04-14T01:26:03.585Z,6.40
2023-04-14T01:27:02.647Z,6.40
2023-04-14T01:28:02.630Z,6.40
2023-04-14T01:29:02.831Z,6.40
2023-04-14T01:30:02.754Z,6.30
2023-04-14T01:31:02.864Z,6.30
2023-04-14T01:32:03.162Z,6.30
2023-04-14T01:33:03.156Z,6.30
2023-04-14T01:34:03.130Z,6.30
2023-04-14T01:35:03.126Z,6.30
2023-04-14T01:36:03.085Z,6.30
2023-04-14T01:37:03.176Z,6.30
2023-04-14T01:38:03.102Z,6.30
2023-04-14T01:39:03.114Z,6.30
2023-04-14T01:40:03.122Z,6.30
2023-04-14T01:41:03.161Z,6.30
2023-04-14T01:42:03.102Z,6.30
2023-04-14T01:43:03.132Z,6.30
2023-04-14T01:44:03.117Z,6.30
2023-04-14T01:45:03.193Z,6.30
2023-04-14T01:46:03.353Z,6.30
2023-04-14T01:47:03.417Z,6.30
2023-04-14T01:48:03.472Z,6.30
2023-04-14T01:49:03.550Z,6.30
2023-04-14T01:50:03.604Z,6.30
2023-04-14T01:51:03.426Z,6.30
2023-04-14T01:52:03.511Z,6.30
2023-04-14T01:53:03.530Z,6.30
2023-04-14T01:54:03.453Z,6.30
2023-04-14T01:55:03.402Z,6.30
2023-04-14T01:56:03.546Z,6.30
2023-04-14T01:57:03.616Z,6.30
2023-04-14T01:58:03.569Z,6.30
2023-04-14T01:59:02.761Z,6.30
2023-04-14T02:00:02.669Z,6.30
2023-04-14T02:01:02.700Z,6.30
2023-04-14T02:02:02.759Z,6.30
2023-04-14T02:03:02.762Z,6.30
2023-04-14T02:04:02.785Z,6.30
2023-04-14T02:05:02.779Z,6.30
2023-04-14T02:06:02.699Z,6.30
2023-04-14T02:07:02.742Z,6.30
2023-04-14T02:08:02.765Z,6.30
2023-04-14T02:09:02.941Z,6.30
2023-04-14T02:10:02.932Z,6.30
2023-04-14T02:11:02.826Z,6.30
2023-04-14T02:12:02.870Z,6.30
2023-04-14T02:13:02.924Z,6.30
2023-04-14T02:14:02.943Z,6.30
2023-04-14T02:15:02.843Z,6.30
2023-04-14T02:16:02.933Z,6.30
2023-04-14T02:17:03.057Z,6.30
2023-04-14T02:18:03.024Z,6.30
2023-04-14T02:19:03.202Z,6.20
2023-04-14T02:20:03.088Z,6.20
2023-04-14T02:21:03.101Z,6.20
2023-04-14T02:22:03.077Z,6.30
2023-04-14T02:23:03.165Z,6.20
2023-04-14T02:24:03.197Z,6.20
2023-04-14T02:25:03.214Z,6.20
2023-04-14T02:26:03.240Z,6.20
2023-04-14T02:27:03.178Z,6.20
2023-04-14T02:28:03.203Z,6.20
2023-04-14T02:29:03.334Z,6.20
2023-04-14T02:30:03.281Z,6.20
2023-04-14T02:31:03.246Z,6.20
2023-04-14T02:32:03.237Z,6.20
2023-04-14T02:33:03.541Z,6.20
2023-04-14T02:34:03.502Z,6.20
2023-04-14T02:35:03.488Z,6.20
2023-04-14T02:36:03.637Z,6.20
2023-04-14T02:37:03.556Z,6.20
2023-04-14T02:38:02.652Z,6.20
2023-04-14T02:39:02.803Z,6.20
2023-04-14T02:40:02.655Z,6.20
2023-04-14T02:41:02.816Z,6.20
2023-04-14T02:42:02.864Z,6.20
2023-04-14T02:43:02.954Z,6.20
2023-04-14T02:44:02.998Z,6.10
2023-04-14T02:45:03.216Z,6.10
2023-04-14T02:46:03.181Z,6.10
2023-04-14T02:47:03.151Z,6.10
2023-04-14T02:48:03.361Z,6.10
2023-04-14T02:49:03.282Z,6.10
2023-04-14T02:50:03.229Z,6.10
2023-04-14T02:51:03.185Z,6.10
2023-04-14T02:52:03.301Z,6.00
2023-04-14T02:53:03.355Z,6.10
2023-04-14T02:54:03.432Z,6.00
2023-04-14T02:55:03.437Z,6.00
2023-04-14T02:56:03.524Z,6.00
2023-04-14T02:57:03.627Z,6.00
2023-04-14T02:58:02.611Z,6.00
2023-04-14T02:59:02.884Z,6.00
2023-04-14T03:00:02.700Z,6.00
2023-04-14T03:01:02.675Z,6.00
2023-04-14T03:02:02.735Z,6.00
2023-04-14T03:03:03.028Z,6.00
2023-04-14T03:04:03.052Z,6.00
2023-04-14T03:05:03.149Z,6.00
2023-04-14T03:06:03.141Z,6.00
2023-04-14T03:07:03.114Z,6.00
2023-04-14T03:08:03.223Z,6.00
2023-04-14T03:09:03.413Z,6.00
2023-04-14T03:10:03.282Z,6.00
2023-04-14T03:11:03.385Z,6.00
2023-04-14T03:12:03.309Z,6.00
2023-04-14T03:13:03.380Z,6.00
2023-04-14T03:14:03.430Z,6.00
2023-04-14T03:15:03.539Z,6.00
2023-04-14T03:16:03.600Z,6.00
2023-04-14T03:17:03.514Z,6.00
2023-04-14T03:18:02.714Z,6.00
2023-04-14T03:19:02.891Z,6.00
2023-04-14T03:20:02.630Z,6.00
2023-04-14T03:21:02.640Z,6.00
2023-04-14T03:22:02.721Z,6.00
2023-04-14T03:23:02.765Z,6.00
2023-04-14T03:24:02.829Z,6.00
2023-04-14T03:25:02.888Z,6.00
2023-04-14T03:26:02.875Z,6.00
2023-04-14T03:27:02.954Z,6.00
2023-04-14T03:28:02.948Z,6.00
2023-04-14T03:29:02.929Z,6.00
2023-04-14T03:30:03.068Z,6.00
2023-04-14T03:31:02.926Z,6.00
2023-04-14T03:32:03.108Z,6.00
2023-04-14T03:33:03.129Z,6.00
2023-04-14T03:34:03.199Z,6.00
2023-04-14T03:35:03.169Z,6.00
2023-04-14T03:36:03.191Z,6.00
2023-04-14T03:37:03.158Z,6.00
2023-04-14T03:38:03.124Z,6.00
2023-04-14T03:39:03.336Z,6.00
2023-04-14T03:40:03.444Z,6.00
2023-04-14T03:41:03.446Z,6.00
2023-04-14T03:42:03.543Z,6.00
2023-04-14T03:43:03.517Z,6.00
2023-04-14T03:44:03.621Z,6.00
2023-04-14T03:45:03.631Z,6.00
2023-04-14T03:46:02.613Z,6.00
2023-04-14T03:47:02.788Z,6.00
2023-04-14T03:48:02.807Z,6.00
2023-04-14T03:49:02.850Z,6.00
2023-04-14T03:50:02.817Z,6.00
2023-04-14T03:51:02.842Z,6.00
2023-04-14T03:52:02.767Z,6.00
2023-04-14T03:53:02.853Z,6.00
2023-04-14T03:54:02.845Z,6.00
2023-04-14T03:55:02.821Z,6.00
2023-04-14T03:56:02.836Z,6.00
2023-04-14T03:57:02.924Z,6.00
2023-04-14T03:58:02.973Z,6.00
2023-04-14T03:59:03.084Z,5.90
2023-04-14T04:00:02.981Z,6.00
2023-04-14T04:01:03.047Z,6.00
2023-04-14T04:02:03.136Z,5.90
2023-04-14T04:03:03.193Z,5.90
2023-04-14T04:04:03.285Z,5.90
2023-04-14T04:05:03.358Z,5.90
2023-04-14T04:06:03.309Z,5.90
2023-04-14T04:07:03.402Z,5.90
2023-04-14T04:08:03.510Z,5.90
2023-04-14T04:09:03.583Z,5.90
2023-04-14T04:10:03.590Z,5.90
2023-04-14T04:11:03.591Z,5.90
2023-04-14T04:12:03.637Z,5.90
2023-04-14T04:13:02.627Z,5.80
2023-04-14T04:14:02.746Z,5.80
2023-04-14T04:15:02.743Z,5.80
2023-04-14T04:16:02.799Z,5.80
2023-04-14T04:17:02.859Z,5.80
2023-04-14T04:18:02.918Z,5.80
2023-04-14T04:19:02.953Z,5.80
2023-04-14T04:20:03.136Z,5.80
2023-04-14T04:21:02.896Z,5.80
2023-04-14T04:22:02.991Z,5.80
2023-04-14T04:23:03.133Z,5.80
2023-04-14T04:24:03.130Z,5.80
2023-04-14T04:25:03.604Z,5.80
2023-04-14T04:26:03.431Z,5.80
2023-04-14T04:27:03.947Z,5.70
2023-04-14T04:28:03.616Z,5.70
2023-04-14T04:29:03.040Z,5.70
2023-04-14T04:30:02.705Z,5.70
2023-04-14T04:31:02.603Z,5.70
2023-04-14T04:32:02.687Z,5.70
2023-04-14T04:33:02.825Z,5.70
2023-04-14T04:34:02.834Z,5.70
2023-04-14T04:35:03.019Z,5.70
2023-04-14T04:36:03.029Z,5.70
2023-04-14T04:37:03.008Z,5.70
2023-04-14T04:38:03.014Z,5.70
2023-04-14T04:39:03.318Z,5.70
2023-04-14T04:40:03.234Z,5.70
2023-04-14T04:41:03.289Z,5.70
2023-04-14T04:42:03.321Z,5.60
2023-04-14T04:43:03.278Z,5.70
2023-04-14T04:44:03.345Z,5.60
2023-04-14T04:45:03.444Z,5.60
2023-04-14T04:46:03.468Z,5.70
2023-04-14T04:47:03.550Z,5.70
2023-04-14T04:48:03.647Z,5.70
2023-04-14T04:49:02.831Z,5.70
2023-04-14T04:50:02.703Z,5.70
2023-04-14T04:51:02.751Z,5.70
2023-04-14T04:52:02.816Z,5.60
2023-04-14T04:53:02.835Z,5.60
2023-04-14T04:54:02.917Z,5.60
2023-04-14T04:55:02.994Z,5.60
2023-04-14T04:56:02.993Z,5.60
2023-04-14T04:57:03.009Z,5.60
2023-04-14T04:58:03.079Z,5.60
2023-04-14T04:59:03.247Z,5.60
2023-04-14T05:00:03.048Z,5.60
2023-04-14T05:01:03.151Z,5.60
2023-04-14T05:02:03.255Z,5.60
2023-04-14T05:03:03.548Z,5.70
2023-04-14T05:04:03.378Z,5.70
2023-04-14T05:05:03.746Z,5.70
2023-04-14T05:06:03.563Z,5.70
2023-04-14T05:07:03.617Z,5.70
2023-04-14T05:08:02.612Z,5.70
2023-04-14T05:09:02.813Z,5.70
2023-04-14T05:10:02.810Z,5.70
2023-04-14T05:11:02.753Z,5.70
2023-04-14T05:12:02.900Z,5.70
2023-04-14T05:13:02.848Z,5.70
2023-04-14T05:14:03.038Z,5.70
2023-04-14T05:15:03.025Z,5.70
2023-04-14T05:16:03.144Z,5.70
2023-04-14T05:17:03.105Z,5.70
2023-04-14T05:18:03.198Z,5.70
2023-04-14T05:19:03.474Z,5.70
2023-04-14T05:20:03.184Z,5.70
2023-04-14T05:21:03.258Z,5.70
2023-04-14T05:22:03.166Z,5.70
2023-04-14T05:23:03.235Z,5.70
2023-04-14T05:24:03.406Z,5.70
2023-04-14T05:25:03.498Z,5.70
2023-04-14T05:26:20.332Z,5.70
2023-04-14T05:27:12.892Z,5.80
2023-04-14T05:28:03.341Z,5.80
2023-04-14T05:29:03.632Z,5.80
2023-04-14T05:30:03.483Z,5.80
2023-04-14T05:31:03.645Z,5.80
2023-04-14T05:32:03.506Z,5.80
2023-04-14T05:33:02.670Z,5.80
2023-04-14T05:34:02.936Z,5.80
2023-04-14T05:35:02.799Z,5.80
2023-04-14T05:36:02.952Z,5.80
2023-04-14T05:37:02.800Z,5.80
2023-04-14T05:38:02.850Z,5.80
2023-04-14T05:39:03.001Z,5.80
2023-04-14T05:40:02.995Z,5.90
2023-04-14T05:41:03.002Z,5.80
2023-04-14T05:42:03.181Z,5.90
2023-04-14T05:43:03.219Z,5.90
2023-04-14T05:44:03.512Z,5.90
2023-04-14T05:45:03.297Z,5.90
2023-04-14T05:46:03.361Z,5.90
2023-04-14T05:47:03.550Z,5.90
2023-04-14T05:48:03.643Z,5.90
2023-04-14T05:49:02.783Z,5.90
2023-04-14T05:50:02.644Z,6.00
2023-04-14T05:51:02.747Z,5.90
2023-04-14T05:52:02.900Z,6.00
2023-04-14T05:53:02.918Z,6.00
2023-04-14T05:54:03.100Z,6.00
2023-04-14T05:55:02.831Z,6.00
2023-04-14T05:56:03.053Z,6.00
2023-04-14T05:57:03.055Z,6.00
2023-04-14T05:58:03.082Z,6.00
2023-04-14T05:59:03.174Z,6.00
2023-04-14T06:00:03.535Z,6.00
2023-04-14T06:01:03.570Z,6.10
2023-04-14T06:02:02.723Z,6.10
2023-04-14T06:03:02.802Z,6.10
2023-04-14T06:04:03.210Z,6.10
2023-04-14T06:05:03.012Z,6.10
2023-04-14T06:06:02.935Z,6.10
2023-04-14T06:07:03.128Z,6.10
2023-04-14T06:08:03.160Z,6.20
2023-04-14T06:09:03.348Z,6.20
2023-04-14T06:10:03.501Z,6.20
2023-04-14T06:11:03.711Z,6.20
2023-04-14T06:12:03.568Z,6.20
2023-04-14T06:13:02.778Z,6.20
2023-04-14T06:14:03.037Z,6.20
2023-04-14T06:15:02.780Z,6.20
2023-04-14T06:16:02.826Z,6.20
2023-04-14T06:17:02.922Z,6.20
2023-04-14T06:18:03.072Z,6.30
2023-04-14T06:19:02.973Z,6.30
2023-04-14T06:20:03.022Z,6.30
2023-04-14T06:21:03.325Z,6.30
2023-04-14T06:22:03.388Z,6.30
2023-04-14T06:23:03.477Z,6.30
2023-04-14T06:24:03.561Z,6.30
2023-04-14T06:25:02.660Z,6.30
2023-04-14T06:26:02.747Z,6.30
2023-04-14T06:27:02.817Z,6.30
2023-04-14T06:28:02.852Z,6.40
2023-04-14T06:29:03.059Z,6.40
2023-04-14T06:30:02.848Z,6.40
2023-04-14T06:31:02.878Z,6.40
2023-04-14T06:32:03.015Z,6.40
2023-04-14T06:33:02.987Z,6.40
2023-04-14T06:34:03.023Z,6.40
2023-04-14T06:35:03.118Z,6.40
2023-04-14T06:36:03.195Z,6.40
2023-04-14T06:37:03.423Z,6.40
2023-04-14T06:38:03.376Z,6.40
2023-04-14T06:39:03.589Z,6.50
2023-04-14T06:40:03.640Z,6.50
2023-04-14T06:41:02.658Z,6.50
2023-04-14T06:42:02.773Z,6.50
2023-04-14T06:43:02.673Z,6.50
2023-04-14T06:44:02.705Z,6.60
2023-04-14T06:45:02.708Z,6.60
2023-04-14T06:46:02.673Z,6.60
2023-04-14T06:47:02.698Z,6.60
2023-04-14T06:48:02.813Z,6.60
2023-04-14T06:49:03.105Z,6.60
2023-04-14T06:50:02.948Z,6.60
2023-04-14T06:51:02.979Z,6.60
2023-04-14T06:52:02.917Z,6.70
2023-04-14T06:53:02.882Z,6.70
2023-04-14T06:54:03.470Z,6.70
2023-04-14T06:55:03.013Z,6.70
2023-04-14T06:56:03.076Z,6.70
2023-04-14T06:57:02.951Z,6.70
2023-04-14T06:58:03.120Z,6.70
2023-04-14T06:59:03.074Z,6.70
2023-04-14T07:00:03.126Z,6.70
2023-04-14T07:01:03.292Z,6.70
2023-04-14T07:02:03.477Z,6.80
2023-04-14T07:03:03.475Z,6.80
2023-04-14T07:04:05.202Z,6.80
2023-04-14T07:05:03.731Z,6.80
2023-04-14T07:06:02.737Z,6.80
2023-04-14T07:07:02.903Z,6.80
2023-04-14T07:08:02.907Z,6.90
2023-04-14T07:09:02.869Z,6.90
2023-04-14T07:10:02.899Z,6.90
2023-04-14T07:11:03.025Z,6.90
2023-04-14T07:12:02.985Z,6.90
2023-04-14T07:13:02.998Z,6.90
2023-04-14T07:14:03.181Z,6.90
2023-04-14T07:15:03.093Z,6.90
2023-04-14T07:16:03.203Z,6.90
2023-04-14T07:17:03.316Z,7.00
2023-04-14T07:18:03.426Z,7.00
2023-04-14T07:19:03.419Z,7.00
2023-04-14T07:20:03.611Z,7.00
2023-04-14T07:21:03.591Z,7.00
2023-04-14T07:22:02.745Z,7.00
2023-04-14T07:23:02.705Z,7.10
2023-04-14T07:24:02.909Z,7.10
2023-04-14T07:25:02.721Z,7.10
2023-04-14T07:26:02.902Z,7.10
2023-04-14T07:27:02.899Z,7.10
2023-04-14T07:28:04.035Z,7.10
2023-04-14T07:29:03.049Z,7.20
2023-04-14T07:30:03.017Z,7.20
2023-04-14T07:31:03.209Z,7.20
2023-04-14T07:32:03.194Z,7.20
2023-04-14T07:33:03.193Z,7.20
2023-04-14T07:34:03.398Z,7.20
2023-04-14T07:35:03.352Z,7.20
2023-04-14T07:36:04.087Z,7.20
2023-04-14T07:37:03.366Z,7.30
2023-04-14T07:38:03.429Z,7.30
2023-04-14T07:39:03.409Z,7.30
2023-04-14T07:40:03.503Z,7.30
2023-04-14T07:41:03.646Z,7.30
2023-04-14T07:42:02.748Z,7.30
2023-04-14T07:43:02.831Z,7.30
2023-04-14T07:44:03.219Z,7.30
2023-04-14T07:45:02.867Z,7.40
2023-04-14T07:46:03.232Z,7.40
2023-04-14T07:47:03.230Z,7.40
2023-04-14T07:48:03.189Z,7.40
2023-04-14T07:49:03.220Z,7.50
2023-04-14T07:50:03.375Z,7.50
2023-04-14T07:51:03.482Z,7.50
2023-04-14T07:52:03.477Z,7.50
2023-04-14T07:53:03.493Z,7.50
2023-04-14T07:54:03.560Z,7.60
2023-04-14T07:55:03.597Z,7.60
2023-04-14T07:56:03.571Z,7.60
2023-04-14T07:57:02.944Z,7.60
2023-04-14T07:58:03.058Z,7.70
2023-04-14T07:59:03.259Z,7.70
2023-04-14T08:00:03.024Z,7.70
2023-04-14T08:01:03.042Z,7.80
2023-04-14T08:02:03.588Z,7.80
2023-04-14T08:03:03.646Z,7.80
2023-04-14T08:04:02.808Z,7.80
2023-04-14T08:05:02.781Z,7.80
2023-04-14T08:06:02.760Z,7.90
2023-04-14T08:07:02.932Z,7.90
2023-04-14T08:08:03.045Z,7.90
2023-04-14T08:09:03.335Z,7.90
2023-04-14T08:10:03.183Z,8.00
2023-04-14T08:11:03.216Z,8.00
2023-04-14T08:12:03.437Z,8.00
2023-04-14T08:13:03.859Z,8.00
2023-04-14T08:14:03.365Z,8.10
2023-04-14T08:15:03.403Z,8.10
2023-04-14T08:16:03.615Z,8.10
2023-04-14T08:17:02.745Z,8.20
2023-04-14T08:18:02.835Z,8.20
2023-04-14T08:19:02.894Z,8.30
2023-04-14T08:20:02.874Z,8.30
2023-04-14T08:21:02.935Z,8.40
2023-04-14T08:22:03.120Z,8.40
2023-04-14T08:23:03.194Z,8.40
2023-04-14T08:24:03.419Z,8.50
2023-04-14T08:25:03.471Z,8.50
2023-04-14T08:26:03.448Z,8.60
2023-04-14T08:27:03.625Z,8.60
2023-04-14T08:28:03.592Z,8.60
2023-04-14T08:29:03.129Z,8.70
2023-04-14T08:30:02.745Z,8.70
2023-04-14T08:31:02.685Z,8.80
2023-04-14T08:32:02.846Z,8.80
2023-04-14T08:33:02.895Z,8.80
2023-04-14T08:34:02.985Z,8.90
2023-04-14T08:35:36.432Z,8.90
2023-04-14T08:36:03.546Z,8.90
2023-04-14T08:37:03.660Z,9.00
2023-04-14T08:38:03.612Z,9.00
2023-04-14T08:39:02.912Z,9.00
2023-04-14T08:40:02.771Z,9.10
2023-04-14T08:41:02.880Z,9.10
2023-04-14T08:42:03.021Z,9.20
2023-04-14T08:43:03.187Z,9.20
2023-04-14T08:44:03.238Z,9.30
2023-04-14T08:45:03.429Z,9.30
2023-04-14T08:46:03.469Z,9.40
2023-04-14T08:47:03.361Z,9.40
2023-04-14T08:48:03.523Z,9.50
2023-04-14T08:49:03.569Z,9.50
2023-04-14T08:50:03.502Z,9.60
2023-04-14T08:51:03.465Z,9.60
2023-04-14T08:52:03.531Z,9.60
2023-04-14T08:53:02.622Z,9.60
2023-04-14T08:54:03.032Z,9.60
2023-04-14T08:55:02.916Z,9.60
2023-04-14T08:56:02.890Z,9.60
2023-04-14T08:57:02.973Z,9.60
2023-04-14T08:58:02.984Z,9.60
2023-04-14T08:59:03.097Z,9.60
2023-04-14T09:00:03.224Z,9.60
2023-04-14T09:01:03.402Z,9.60
2023-04-14T09:02:03.604Z,9.60
2023-04-14T09:03:03.739Z,9.50
2023-04-14T09:04:03.022Z,9.60
2023-04-14T09:05:02.979Z,9.50
2023-04-14T09:06:02.820Z,9.50
2023-04-14T09:07:02.964Z,9.50
2023-04-14T09:08:03.004Z,9.50
2023-04-14T09:09:02.989Z,9.50
2023-04-14T09:10:03.145Z,9.50
2023-04-14T09:11:03.108Z,9.50
2023-04-14T09:12:03.104Z,9.50
2023-04-14T09:13:03.110Z,9.50
2023-04-14T09:14:03.518Z,9.50
2023-04-14T09:15:03.237Z,9.50
2023-04-14T09:16:03.311Z,9.50
2023-04-14T09:17:03.474Z,9.50
2023-04-14T09:18:03.417Z,9.40
2023-04-14T09:19:06.513Z,9.50
2023-04-14T09:20:36.963Z,9.50
2023-04-14T09:21:27.796Z,9.50
2023-04-14T09:22:02.975Z,9.50
2023-04-14T09:23:03.146Z,9.50
2023-04-14T09:24:03.304Z,9.50
2023-04-14T09:25:03.283Z,9.60
2023-04-14T09:26:03.213Z,9.50
2023-04-14T09:27:03.229Z,9.50
2023-04-14T09:28:03.411Z,9.50
2023-04-14T09:29:03.769Z,9.50
2023-04-14T09:30:03.678Z,9.60
2023-04-14T09:31:03.599Z,9.60
2023-04-14T09:32:02.719Z,9.60
2023-04-14T09:33:02.879Z,9.60
2023-04-14T09:34:03.092Z,9.70
2023-04-14T09:35:02.935Z,9.70
2023-04-14T09:36:03.085Z,9.70
2023-04-14T09:37:03.087Z,9.70
2023-04-14T09:38:03.192Z,9.70
2023-04-14T09:39:03.359Z,9.70
2023-04-14T09:40:03.485Z,9.70
2023-04-14T09:41:03.433Z,9.80
2023-04-14T09:42:03.664Z,9.80
2023-04-14T09:43:02.769Z,9.70
2023-04-14T09:44:03.021Z,9.70
2023-04-14T09:45:02.715Z,9.70
2023-04-14T09:46:02.893Z,9.70
2023-04-14T09:47:02.908Z,9.70
2023-04-14T09:48:03.076Z,9.70
2023-04-14T09:49:03.129Z,9.70
2023-04-14T09:50:03.163Z,9.60
2023-04-14T09:51:03.533Z,9.60
2023-04-14T09:52:03.411Z,9.60
2023-04-14T09:53:03.489Z,9.60
2023-04-14T09:54:03.684Z,9.60
2023-04-14T09:55:03.493Z,9.60
2023-04-14T09:56:03.623Z,9.60
2023-04-14T09:57:02.619Z,9.60
2023-04-14T09:58:02.655Z,9.60
2023-04-14T09:59:03.172Z,9.60
2023-04-14T10:00:02.823Z,9.50
2023-04-14T10:01:02.781Z,9.50
2023-04-14T10:02:02.828Z,9.40
2023-04-14T10:03:02.881Z,9.40
2023-04-14T10:04:03.162Z,9.40
2023-04-14T10:05:03.244Z,9.40
2023-04-14T10:06:03.006Z,9.40
2023-04-14T10:07:03.032Z,9.40
2023-04-14T10:08:03.132Z,9.40
2023-04-14T10:09:03.364Z,9.50
2023-04-14T10:10:03.583Z,9.50
2023-04-14T10:11:03.371Z,9.50
2023-04-14T10:12:03.540Z,9.50
2023-04-14T10:13:03.536Z,9.50
2023-04-14T10:14:03.599Z,9.50
2023-04-14T10:15:02.696Z,9.50
2023-04-14T10:16:02.799Z,9.60
2023-04-14T10:17:02.785Z,9.60
2023-04-14T10:18:02.929Z,9.60
2023-04-14T10:19:03.590Z,9.60
2023-04-14T10:20:03.089Z,9.60
2023-04-14T10:21:03.032Z,9.60
2023-04-14T10:22:03.161Z,9.70
2023-04-14T10:23:03.174Z,9.70
2023-04-14T10:24:03.174Z,9.70
2023-04-14T10:25:03.176Z,9.80
2023-04-14T10:26:03.229Z,9.80
2023-04-14T10:27:03.245Z,9.90
2023-04-14T10:28:03.295Z,9.90
2023-04-14T10:29:03.550Z,9.90
2023-04-14T10:30:03.330Z,10.00
2023-04-14T10:31:03.555Z,10.00
2023-04-14T10:32:03.620Z,10.00
2023-04-14T10:33:02.724Z,10.00
2023-04-14T10:34:02.751Z,10.10
2023-04-14T10:35:02.954Z,10.10
2023-04-14T10:36:03.168Z,10.10
2023-04-14T10:37:03.304Z,10.10
2023-04-14T10:38:03.352Z,10.20
2023-04-14T10:39:03.630Z,10.20
2023-04-14T10:40:03.490Z,10.20
2023-04-14T10:41:03.467Z,10.20
2023-04-14T10:42:03.482Z,10.30
2023-04-14T10:43:03.518Z,10.30
2023-04-14T10:44:03.535Z,10.30
2023-04-14T10:45:03.618Z,10.30
2023-04-14T10:46:02.682Z,10.30
2023-04-14T10:47:02.751Z,10.30
2023-04-14T10:48:02.893Z,10.30
2023-04-14T10:49:02.955Z,10.30
2023-04-14T10:50:02.848Z,10.30
2023-04-14T10:51:02.982Z,10.20
2023-04-14T10:52:03.108Z,10.20
2023-04-14T10:53:03.113Z,10.20
2023-04-14T10:54:03.119Z,10.20
2023-04-14T10:55:03.220Z,10.20
2023-04-14T10:56:03.315Z,10.20
2023-04-14T10:57:03.449Z,10.20
2023-04-14T10:58:03.507Z,10.20
2023-04-14T10:59:03.577Z,10.20
2023-04-14T11:00:03.522Z,10.20
2023-04-14T11:01:02.763Z,10.20
2023-04-14T11:02:02.934Z,10.20
2023-04-14T11:03:03.127Z,10.20
2023-04-14T11:04:02.957Z,10.20
2023-04-14T11:05:02.904Z,10.30
2023-04-14T11:06:02.969Z,10.30
2023-04-14T11:07:03.054Z,10.30
2023-04-14T11:08:03.401Z,10.30
2023-04-14T11:09:03.395Z,10.30
2023-04-14T11:10:03.234Z,10.30
2023-04-14T11:11:03.363Z,10.20
2023-04-14T11:12:03.342Z,10.30
2023-04-14T11:13:03.554Z,10.20
2023-04-14T11:14:03.569Z,10.20
2023-04-14T11:15:03.753Z,10.20
2023-04-14T11:16:03.630Z,10.30
2023-04-14T11:17:04.836Z,10.30
2023-04-14T11:18:02.688Z,10.30
2023-04-14T11:19:02.851Z,10.30
2023-04-14T11:20:02.742Z,10.20
2023-04-14T11:21:02.786Z,10.30
2023-04-14T11:22:02.719Z,10.20
2023-04-14T11:23:02.910Z,10.20
2023-04-14T11:24:02.901Z,10.20
2023-04-14T11:25:03.067Z,10.20
2023-04-14T11:26:03.085Z,10.20
2023-04-14T11:27:03.139Z,10.20
2023-04-14T11:28:03.169Z,10.20
2023-04-14T11:29:03.317Z,10.20
2023-04-14T11:30:03.368Z,10.20
2023-04-14T11:31:03.529Z,10.20
2023-04-14T11:32:03.568Z,10.20
2023-04-14T11:33:02.742Z,10.20
2023-04-14T11:34:02.822Z,10.20
2023-04-14T11:35:02.751Z,10.20
2023-04-14T11:36:03.040Z,10.20
2023-04-14T11:37:03.109Z,10.20
2023-04-14T11:38:03.190Z,10.20
2023-04-14T11:39:03.542Z,10.20
2023-04-14T11:40:03.425Z,10.20
2023-04-14T11:41:03.372Z,10.30
2023-04-14T11:42:03.387Z,10.30
2023-04-14T11:43:03.379Z,10.30
2023-04-14T11:44:03.430Z,10.40
2023-04-14T11:45:03.425Z,10.40
2023-04-14T11:46:03.607Z,10.50
2023-04-14T11:47:03.564Z,10.50
2023-04-14T11:48:03.638Z,10.60
2023-04-14T11:49:03.721Z,10.70
2023-04-14T11:50:02.753Z,10.70
2023-04-14T11:51:02.669Z,10.70
2023-04-14T11:52:02.855Z,10.80
2023-04-14T11:53:02.852Z,10.80
2023-04-14T11:54:02.765Z,10.80
2023-04-14T11:55:02.972Z,10.80
2023-04-14T11:56:03.027Z,10.80
2023-04-14T11:57:02.934Z,10.80
2023-04-14T11:58:03.051Z,10.80
2023-04-14T11:59:03.541Z,10.80
2023-04-14T12:00:03.102Z,10.80
2023-04-14T12:01:03.075Z,10.80
2023-04-14T12:02:03.291Z,10.80
2023-04-14T12:03:03.491Z,10.80
2023-04-14T12:04:03.452Z,10.80
2023-04-14T12:05:03.565Z,10.80
2023-04-14T12:06:03.538Z,10.80
2023-04-14T12:07:03.444Z,10.90
2023-04-14T12:08:03.491Z,10.90
2023-04-14T12:09:03.580Z,10.80
2023-04-14T12:10:03.535Z,10.90
2023-04-14T12:11:03.564Z,10.90
2023-04-14T12:12:02.661Z,10.90
2023-04-14T12:13:02.749Z,10.90
2023-04-14T12:14:02.832Z,10.80
2023-04-14T12:15:02.971Z,10.80
2023-04-14T12:16:03.037Z,10.80
2023-04-14T12:17:03.265Z,10.80
2023-04-14T12:18:03.441Z,10.80
2023-04-14T12:19:03.932Z,10.80
2023-04-14T12:20:03.565Z,10.80
2023-04-14T12:21:02.682Z,10.80
2023-04-14T12:22:02.735Z,10.80
2023-04-14T12:23:02.643Z,10.70
2023-04-14T12:24:02.883Z,10.80
2023-04-14T12:25:02.907Z,10.70
2023-04-14T12:26:02.844Z,10.80
2023-04-14T12:27:03.029Z,10.80
2023-04-14T12:28:03.016Z,10.80
2023-04-14T12:29:03.068Z,10.80
2023-04-14T12:30:03.000Z,10.80
2023-04-14T12:31:03.090Z,10.80
2023-04-14T12:32:03.067Z,10.80
2023-04-14T12:33:03.034Z,10.80
2023-04-14T12:34:03.070Z,10.80
2023-04-14T12:35:03.027Z,10.80
2023-04-14T12:36:03.068Z,10.80
2023-04-14T12:37:03.125Z,10.90
2023-04-14T12:38:03.208Z,10.90
2023-04-14T12:39:03.299Z,10.90
2023-04-14T12:40:03.237Z,11.00
2023-04-14T12:41:03.284Z,11.00
2023-04-14T12:42:03.346Z,11.00
2023-04-14T12:43:03.353Z,11.10
2023-04-14T12:44:03.353Z,11.10
2023-04-14T12:45:03.312Z,11.10
2023-04-14T12:46:03.456Z,11.10
2023-04-14T12:47:03.596Z,11.10
2023-04-14T12:48:03.580Z,11.10
2023-04-14T12:49:03.715Z,11.10
2023-04-14T12:50:02.695Z,11.10
2023-04-14T12:51:02.729Z,11.00
2023-04-14T12:52:02.901Z,10.90
2023-04-14T12:53:02.855Z,10.90
2023-04-14T12:54:02.876Z,10.90
2023-04-14T12:55:02.946Z,10.80
2023-04-14T12:56:03.160Z,10.80
2023-04-14T12:57:03.629Z,10.70
2023-04-14T12:58:03.192Z,10.70
2023-04-14T12:59:03.587Z,10.70
2023-04-14T13:00:03.408Z,10.60
2023-04-14T13:01:03.457Z,10.60
2023-04-14T13:02:03.568Z,10.50
2023-04-14T13:03:02.753Z,10.50
2023-04-14T13:04:02.819Z,10.50
2023-04-14T13:05:02.736Z,10.50
2023-04-14T13:06:02.842Z,10.50
2023-04-14T13:07:02.813Z,10.50
2023-04-14T13:08:02.822Z,10.40
2023-04-14T13:09:02.861Z,10.40
2023-04-14T13:10:02.848Z,10.50
2023-04-14T13:11:03.012Z,10.50
2023-04-14T13:12:03.235Z,10.50
2023-04-14T13:13:03.238Z,10.50